createdAt,value
2023-02-15T00:00:46.492Z,40.10
2023-02-15T00:03:12.875Z,34.70
2023-02-15T00:05:39.309Z,39.50
2023-02-15T00:08:05.746Z,38.10
2023-02-15T00:10:32.128Z,36.93
2023-02-15T00:12:58.602Z,36.60
2023-02-15T00:15:25.083Z,42.23
2023-02-15T00:17:51.608Z,38.80
2023-02-15T00:20:18.071Z,39.30
2023-02-15T00:22:44.731Z,38.13
2023-02-15T00:25:11.247Z,39.43
2023-02-15T00:27:37.653Z,39.67
2023-02-15T00:30:04.187Z,36.07
2023-02-15T00:32:30.579Z,38.80
2023-02-15T00:34:57.274Z,36.10
2023-02-15T00:37:23.738Z,33.60
2023-02-15T00:39:50.208Z,35.27
2023-02-15T00:42:16.609Z,35.57
2023-02-15T00:44:44.103Z,35.93
2023-02-15T00:47:10.586Z,35.20
2023-02-15T00:49:37.043Z,37.80
2023-02-15T00:52:03.527Z,40.73
2023-02-15T00:54:29.973Z,34.63
2023-02-15T00:56:56.459Z,35.47
2023-02-15T00:59:24.269Z,35.17
2023-02-15T01:01:50.865Z,36.80
2023-02-15T01:04:17.641Z,42.47
2023-02-15T01:06:44.092Z,40.43
2023-02-15T01:09:10.506Z,38.40
2023-02-15T01:11:36.904Z,40.20
2023-02-15T01:14:03.347Z,39.43
2023-02-15T01:16:30.101Z,37.47
2023-02-15T01:18:56.891Z,39.07
2023-02-15T01:21:26.942Z,37.00
2023-02-15T01:23:54.310Z,34.67
2023-02-15T01:26:20.852Z,41.60
2023-02-15T01:28:47.511Z,41.43
2023-02-15T01:31:16.969Z,38.67
2023-02-15T01:33:43.725Z,38.50
2023-02-15T01:36:10.755Z,38.83
2023-02-15T01:38:37.228Z,39.30
2023-02-15T01:41:04.093Z,38.73
2023-02-15T01:43:45.183Z,38.37
2023-02-15T01:46:15.332Z,37.63
2023-02-15T01:48:47.743Z,38.67
2023-02-15T01:51:17.524Z,33.57
2023-02-15T01:53:52.824Z,36.07
2023-02-15T01:56:31.140Z,36.07
2023-02-15T01:59:01.082Z,38.93
2023-02-15T02:01:28.542Z,34.42
2023-02-15T02:04:19.136Z,38.30
2023-02-15T02:06:49.838Z,36.45
2023-02-15T02:09:16.745Z,35.45
2023-02-15T02:11:47.445Z,37.10
2023-02-15T02:14:13.955Z,37.60
2023-02-15T02:17:06.656Z,39.57
2023-02-15T02:20:17.337Z,36.00
2023-02-15T02:23:12.054Z,35.45
2023-02-15T02:26:01.348Z,37.67
2023-02-15T02:29:12.796Z,37.43
2023-02-15T02:31:57.401Z,36.00
2023-02-15T02:34:33.341Z,38.93
2023-02-15T02:37:21.817Z,39.20
2023-02-15T02:40:00.155Z,36.23
2023-02-15T02:42:30.568Z,40.00
2023-02-15T02:45:21.203Z,33.08
2023-02-15T02:47:56.674Z,40.20
2023-02-15T02:50:26.422Z,37.37
2023-02-15T02:52:54.988Z,33.23
2023-02-15T02:55:32.626Z,36.83
2023-02-15T02:58:04.558Z,35.93
2023-02-15T03:00:35.707Z,42.70
2023-02-15T03:03:08.855Z,35.33
2023-02-15T03:05:41.767Z,42.63
2023-02-15T03:08:09.874Z,33.63
2023-02-15T03:10:40.113Z,37.90
2023-02-15T03:13:07.350Z,40.45
2023-02-15T03:15:39.602Z,37.53
2023-02-15T03:18:06.667Z,35.93
2023-02-15T03:20:38.498Z,40.60
2023-02-15T03:23:14.906Z,34.77
2023-02-15T03:25:44.058Z,36.63
2023-02-15T03:28:18.482Z,36.70
2023-02-15T03:30:49.646Z,37.63
2023-02-15T03:33:16.949Z,37.67
2023-02-15T03:35:54.040Z,32.37
2023-02-15T03:38:44.586Z,35.40
2023-02-15T03:41:13.041Z,35.58
2023-02-15T03:43:45.285Z,35.67
2023-02-15T03:46:20.701Z,40.87
2023-02-15T03:48:53.118Z,39.03
2023-02-15T03:51:24.462Z,33.80
2023-02-15T03:53:53.262Z,35.27
2023-02-15T03:56:19.620Z,37.87
2023-02-15T03:58:46.246Z,37.63
2023-02-15T04:01:22.183Z,38.07
2023-02-15T04:04:04.307Z,36.90
2023-02-15T04:06:30.725Z,37.07
2023-02-15T04:08:57.360Z,37.70
2023-02-15T04:11:23.826Z,42.53
2023-02-15T04:13:50.297Z,41.67
2023-02-15T04:16:16.719Z,39.87
2023-02-15T04:18:44.392Z,39.80
2023-02-15T04:21:10.789Z,35.07
2023-02-15T04:23:37.474Z,35.33
2023-02-15T04:26:07.352Z,36.07
2023-02-15T04:28:33.848Z,38.90
2023-02-15T04:31:00.537Z,39.33
2023-02-15T04:33:27.078Z,32.97
2023-02-15T04:35:53.770Z,36.23
2023-02-15T04:38:20.192Z,34.57
2023-02-15T04:40:51.279Z,33.03
2023-02-15T04:43:17.679Z,38.97
2023-02-15T04:45:51.359Z,37.73
2023-02-15T04:48:19.025Z,41.83
2023-02-15T04:50:45.720Z,41.97
2023-02-15T04:53:12.686Z,37.00
2023-02-15T04:55:39.231Z,37.67
2023-02-15T04:58:05.693Z,38.50
2023-02-15T05:00:32.464Z,38.50
2023-02-15T05:02:59.275Z,40.57
2023-02-15T05:05:25.751Z,40.17
2023-02-15T05:07:52.264Z,40.00
2023-02-15T05:10:18.784Z,37.90
2023-02-15T05:12:45.218Z,36.20
2023-02-15T05:15:11.743Z,36.70
2023-02-15T05:17:38.513Z,37.47
2023-02-15T05:20:05.965Z,39.77
2023-02-15T05:22:32.722Z,36.73
2023-02-15T05:24:59.564Z,38.90
2023-02-15T05:27:26.045Z,36.77
2023-02-15T05:29:52.571Z,42.83
2023-02-15T05:32:19.230Z,40.30
2023-02-15T05:34:47.081Z,41.80
2023-02-15T05:37:13.558Z,45.97
2023-02-15T05:39:40.079Z,46.80
2023-02-15T05:42:06.812Z,43.83
2023-02-15T05:44:33.165Z,37.83
2023-02-15T05:46:59.621Z,41.90
2023-02-15T05:49:26.047Z,35.13
2023-02-15T05:51:52.402Z,46.03
2023-02-15T05:54:18.785Z,40.93
2023-02-15T05:56:45.269Z,36.23
2023-02-15T05:59:11.623Z,46.27
2023-02-15T06:01:38.117Z,41.10
2023-02-15T06:04:04.595Z,41.73
2023-02-15T06:06:31.310Z,44.93
2023-02-15T06:08:57.885Z,40.83
2023-02-15T06:11:26.012Z,47.20
2023-02-15T06:13:52.476Z,49.50
2023-02-15T06:16:19.090Z,51.97
2023-02-15T06:18:45.936Z,56.53
2023-02-15T06:21:13.472Z,64.07
2023-02-15T06:23:39.966Z,58.30
2023-02-15T06:26:09.842Z,63.17
2023-02-15T06:28:36.437Z,67.35
2023-02-15T06:31:02.961Z,85.27
2023-02-15T06:33:29.480Z,64.43
2023-02-15T06:35:55.945Z,55.23
2023-02-15T06:38:22.782Z,51.30
2023-02-15T06:40:50.771Z,57.63
2023-02-15T06:43:17.336Z,70.43
2023-02-15T06:45:44.048Z,69.60
2023-02-15T06:48:10.804Z,76.87
2023-02-15T06:50:37.219Z,63.90
2023-02-15T06:53:04.113Z,51.53
2023-02-15T06:55:31.562Z,57.67
2023-02-15T06:57:58.137Z,55.37
2023-02-15T07:00:26.356Z,62.47
2023-02-15T07:02:56.542Z,54.73
2023-02-15T07:05:23.887Z,51.05
2023-02-15T07:07:51.969Z,48.00
2023-02-15T07:10:20.656Z,52.30
2023-02-15T07:12:47.255Z,55.27
2023-02-15T07:15:18.481Z,54.70
2023-02-15T07:17:45.335Z,49.73
2023-02-15T07:20:21.270Z,49.77
2023-02-15T07:22:48.322Z,44.63
2023-02-15T07:25:15.172Z,47.67
2023-02-15T07:27:42.261Z,47.30
2023-02-15T07:30:15.339Z,53.00
2023-02-15T07:32:42.234Z,49.13
2023-02-15T07:35:08.853Z,49.07
2023-02-15T07:37:35.750Z,45.30
2023-02-15T07:40:02.200Z,53.57
2023-02-15T07:42:28.841Z,44.53
2023-02-15T07:44:55.313Z,50.50
2023-02-15T07:47:21.732Z,43.47
2023-02-15T07:49:49.305Z,42.87
2023-02-15T07:52:16.057Z,43.13
2023-02-15T07:54:42.490Z,40.37
2023-02-15T07:57:09.214Z,40.63
2023-02-15T07:59:35.566Z,38.93
2023-02-15T08:02:02.058Z,39.50
2023-02-15T08:04:28.554Z,41.80
2023-02-15T08:06:55.400Z,37.63
2023-02-15T08:09:22.088Z,34.83
2023-02-15T08:11:49.271Z,41.73
2023-02-15T08:14:20.834Z,44.27
2023-02-15T08:17:01.024Z,38.37
2023-02-15T08:19:30.931Z,35.60
2023-02-15T08:22:08.801Z,35.73
2023-02-15T08:24:38.924Z,31.37
2023-02-15T08:27:07.446Z,25.35
2023-02-15T08:29:35.567Z,33.13
2023-02-15T08:32:05.339Z,31.17
2023-02-15T08:34:34.468Z,34.07
2023-02-15T08:37:01.731Z,39.57
2023-02-15T08:39:28.504Z,37.93
2023-02-15T08:41:54.940Z,31.93
2023-02-15T08:44:24.900Z,30.97
2023-02-15T08:46:51.505Z,32.03
2023-02-15T08:49:22.589Z,36.17
2023-02-15T08:51:50.320Z,34.80
2023-02-15T08:54:21.444Z,30.23
2023-02-15T08:56:48.182Z,29.57
2023-02-15T08:59:24.085Z,41.57
2023-02-15T09:01:53.145Z,45.60
2023-02-15T09:04:20.449Z,29.75
2023-02-15T09:06:49.466Z,34.17
2023-02-15T09:09:17.066Z,32.45
2023-02-15T09:11:48.788Z,34.42
2023-02-15T09:14:20.575Z,34.28
2023-02-15T09:16:47.932Z,34.78
2023-02-15T09:19:15.070Z,34.65
2023-02-15T09:21:41.576Z,28.23
2023-02-15T09:24:12.301Z,30.63
2023-02-15T09:26:42.328Z,32.15
2023-02-15T09:29:10.286Z,32.85
2023-02-15T09:31:45.731Z,25.58
2023-02-15T09:34:13.832Z,24.88
2023-02-15T09:36:43.328Z,26.58
2023-02-15T09:39:27.103Z,26.27
2023-02-15T09:42:04.078Z,25.42
2023-02-15T09:44:30.479Z,27.50
2023-02-15T09:47:21.776Z,25.52
2023-02-15T09:50:15.506Z,27.05
2023-02-15T09:53:10.600Z,23.55
2023-02-15T09:55:55.066Z,26.60
2023-02-15T09:58:41.749Z,25.48
2023-02-15T10:01:35.461Z,21.30
2023-02-15T10:04:44.050Z,25.38
2023-02-15T10:07:30.599Z,31.77
2023-02-15T10:10:50.627Z,25.20
2023-02-15T10:13:37.052Z,39.00
2023-02-15T10:16:28.001Z,32.25
2023-02-15T10:19:06.592Z,27.27
2023-02-15T10:22:11.370Z,28.23
2023-02-15T10:25:35.151Z,25.55
2023-02-15T10:28:21.167Z,22.70
2023-02-15T10:30:53.050Z,22.45
2023-02-15T10:33:41.666Z,23.27
2023-02-15T10:36:34.090Z,22.98
2023-02-15T10:39:17.430Z,20.48
2023-02-15T10:41:55.278Z,19.30
2023-02-15T10:44:38.498Z,16.40
2023-02-15T10:47:23.414Z,16.55
2023-02-15T10:50:08.241Z,19.85
2023-02-15T10:52:56.739Z,22.17
2023-02-15T10:55:52.142Z,17.08
2023-02-15T10:58:32.662Z,24.73
2023-02-15T11:01:23.169Z,22.20
2023-02-15T11:03:55.318Z,18.25
2023-02-15T11:06:23.974Z,19.23
2023-02-15T11:08:58.949Z,17.38
2023-02-15T11:11:30.813Z,23.83
2023-02-15T11:14:03.429Z,20.90
2023-02-15T11:16:38.137Z,16.50
2023-02-15T11:19:31.630Z,18.27
2023-02-15T11:22:05.859Z,19.58
2023-02-15T11:24:41.873Z,17.58
2023-02-15T11:27:17.607Z,16.05
2023-02-15T11:30:06.009Z,20.13
2023-02-15T11:32:40.559Z,23.40
2023-02-15T11:35:32.953Z,20.23
2023-02-15T11:38:20.684Z,22.70
2023-02-15T11:40:50.617Z,16.27
2023-02-15T11:43:32.474Z,19.13
2023-02-15T11:45:59.312Z,19.15
2023-02-15T11:48:25.843Z,21.08
2023-02-15T11:50:52.504Z,18.38
2023-02-15T11:53:22.046Z,19.20
2023-02-15T11:55:50.666Z,22.42
2023-02-15T11:58:39.084Z,16.63
2023-02-15T12:01:26.041Z,16.85
2023-02-15T12:03:56.692Z,21.48
2023-02-15T12:06:38.466Z,23.35
2023-02-15T12:09:19.625Z,19.67
2023-02-15T12:11:47.062Z,18.92
2023-02-15T12:14:15.546Z,26.52
2023-02-15T12:16:51.363Z,28.35
2023-02-15T12:19:41.893Z,25.67
2023-02-15T12:22:21.921Z,27.27
2023-02-15T12:24:50.576Z,26.65
2023-02-15T12:27:23.255Z,28.27
2023-02-15T12:29:53.556Z,24.08
2023-02-15T12:32:27.997Z,22.58
2023-02-15T12:35:02.537Z,28.05
2023-02-15T12:37:32.453Z,21.42
2023-02-15T12:40:01.491Z,15.18
2023-02-15T12:42:41.282Z,18.40
2023-02-15T12:45:33.691Z,15.67
2023-02-15T12:48:18.659Z,18.90
2023-02-15T12:50:58.036Z,18.35
2023-02-15T12:53:35.022Z,16.95
2023-02-15T12:56:07.926Z,18.48
2023-02-15T12:58:38.347Z,17.77
2023-02-15T13:01:10.606Z,16.52
2023-02-15T13:03:57.238Z,16.88
2023-02-15T13:06:25.390Z,28.05
2023-02-15T13:08:54.663Z,27.08
2023-02-15T13:11:31.331Z,17.30
2023-02-15T13:14:01.280Z,20.95
2023-02-15T13:16:44.316Z,20.08
2023-02-15T13:19:19.733Z,21.80
2023-02-15T13:21:50.447Z,13.05
2023-02-15T13:27:13.196Z,14.73
2023-02-15T13:29:45.865Z,18.38
2023-02-15T13:32:28.026Z,18.20
2023-02-15T13:34:58.758Z,16.92
2023-02-15T13:40:05.155Z,17.85
2023-02-15T13:42:43.913Z,20.17
2023-02-15T13:45:38.016Z,17.13
2023-02-15T13:48:50.759Z,17.48
2023-02-15T13:51:26.352Z,15.77
2023-02-15T13:54:01.572Z,17.25
2023-02-15T13:56:42.832Z,17.67
2023-02-15T13:59:30.298Z,20.15
2023-02-15T14:02:10.058Z,16.30
2023-02-15T14:05:03.806Z,15.27
2023-02-15T14:08:07.880Z,22.77
2023-02-15T14:10:57.910Z,16.70
2023-02-15T14:16:34.892Z,20.33
2023-02-15T14:19:34.048Z,15.25
2023-02-15T14:22:03.750Z,19.38
2023-02-15T14:24:51.671Z,14.55
2023-02-15T14:27:46.747Z,22.52
2023-02-15T14:30:23.693Z,22.52
2023-02-15T14:32:58.376Z,24.38
2023-02-15T14:35:28.843Z,25.70
2023-02-15T14:40:56.211Z,26.92
2023-02-15T14:43:22.666Z,35.65
2023-02-15T14:46:34.673Z,30.17
2023-02-15T14:49:12.105Z,28.92
2023-02-15T14:51:41.422Z,30.45
2023-02-15T14:54:16.933Z,32.35
2023-02-15T14:56:47.155Z,22.70
2023-02-15T14:59:24.535Z,30.05
2023-02-15T15:01:59.823Z,30.08
2023-02-15T15:04:36.614Z,31.08
2023-02-15T15:07:08.771Z,34.63
2023-02-15T15:09:38.823Z,34.03
2023-02-15T15:12:33.963Z,30.95
2023-02-15T15:15:01.079Z,29.48
2023-02-15T15:17:36.589Z,29.85
2023-02-15T15:20:15.570Z,21.60
2023-02-15T15:22:44.085Z,23.50
2023-02-15T15:25:32.898Z,41.63
2023-02-15T15:27:59.411Z,36.78
2023-02-15T15:30:32.024Z,29.38
2023-02-15T15:33:01.511Z,40.00
2023-02-15T15:35:34.068Z,32.13
2023-02-15T15:38:55.149Z,30.05
2023-02-15T15:42:02.924Z,35.65
2023-02-15T15:45:03.836Z,28.55
2023-02-15T15:50:15.242Z,36.15
2023-02-15T15:52:50.983Z,40.83
2023-02-15T15:55:20.961Z,32.75
2023-02-15T15:57:52.693Z,34.28
2023-02-15T16:00:36.005Z,36.63
2023-02-15T16:03:03.363Z,41.58
2023-02-15T16:05:36.897Z,30.67
2023-02-15T16:08:04.030Z,38.00
2023-02-15T16:10:31.670Z,34.60
2023-02-15T16:12:59.215Z,41.13
2023-02-15T16:15:46.219Z,38.92
2023-02-15T16:18:18.133Z,29.70
2023-02-15T16:20:59.761Z,39.60
2023-02-15T16:23:56.050Z,45.65
2023-02-15T16:26:53.699Z,36.03
2023-02-15T16:29:29.302Z,39.75
2023-02-15T16:32:24.817Z,36.38
2023-02-15T16:35:02.105Z,41.53
2023-02-15T16:37:34.217Z,36.10
2023-02-15T16:40:01.119Z,30.33
2023-02-15T16:42:28.895Z,33.45
2023-02-15T16:45:02.188Z,36.08
2023-02-15T16:47:37.128Z,40.20
2023-02-15T16:50:05.136Z,37.33
2023-02-15T16:52:31.899Z,35.30
2023-02-15T16:55:06.144Z,42.22
2023-02-15T16:57:38.037Z,36.45
2023-02-15T17:00:17.857Z,37.97
2023-02-15T17:02:59.521Z,38.30
2023-02-15T17:05:51.328Z,39.47
2023-02-15T17:08:27.571Z,32.13
2023-02-15T17:11:00.772Z,35.15
2023-02-15T17:13:30.735Z,35.22
2023-02-15T17:16:00.496Z,30.27
2023-02-15T17:18:30.912Z,26.60
2023-02-15T17:21:02.640Z,35.28
2023-02-15T17:23:33.956Z,33.75
2023-02-15T17:26:11.367Z,34.30
2023-02-15T17:28:38.991Z,31.73
2023-02-15T17:31:08.249Z,33.22
2023-02-15T17:33:34.745Z,34.03
2023-02-15T17:36:17.061Z,29.48
2023-02-15T17:38:58.704Z,33.78
2023-02-15T17:41:27.026Z,28.77
2023-02-15T17:43:53.612Z,28.92
2023-02-15T17:46:20.604Z,31.65
2023-02-15T17:48:49.374Z,25.25
2023-02-15T17:51:17.004Z,25.75
2023-02-15T17:53:44.177Z,25.27
2023-02-15T17:56:10.841Z,25.00
2023-02-15T17:58:37.989Z,30.40
2023-02-15T18:01:12.891Z,30.77
2023-02-15T18:03:53.296Z,32.35
2023-02-15T18:06:21.470Z,30.42
2023-02-15T18:08:48.185Z,26.20
2023-02-15T18:11:14.873Z,25.15
2023-02-15T18:13:41.266Z,30.27
2023-02-15T18:16:14.289Z,35.10
2023-02-15T18:18:41.348Z,38.13
2023-02-15T18:21:07.870Z,39.17
2023-02-15T18:23:34.344Z,37.35
2023-02-15T18:26:00.835Z,39.72
2023-02-15T18:28:28.720Z,41.38
2023-02-15T18:30:55.333Z,33.15
2023-02-15T18:33:44.167Z,28.35
2023-02-15T18:36:17.738Z,39.85
2023-02-15T18:38:44.173Z,32.63
2023-02-15T18:41:18.292Z,35.70
2023-02-15T18:43:45.435Z,38.95
2023-02-15T18:46:12.341Z,30.42
2023-02-15T18:48:40.548Z,28.15
2023-02-15T18:51:17.997Z,27.55
2023-02-15T18:53:45.381Z,31.83
2023-02-15T18:56:19.800Z,26.23
2023-02-15T18:58:47.156Z,33.00
2023-02-15T19:01:19.854Z,27.58
2023-02-15T19:03:51.304Z,28.02
2023-02-15T19:06:20.937Z,28.80
2023-02-15T19:08:49.308Z,25.52
2023-02-15T19:11:21.486Z,37.05
2023-02-15T19:13:47.886Z,32.13
2023-02-15T19:16:28.465Z,26.40
2023-02-15T19:18:54.912Z,24.45
2023-02-15T19:21:22.584Z,25.15
2023-02-15T19:24:03.551Z,30.42
2023-02-15T19:29:14.992Z,25.63
2023-02-15T19:31:42.922Z,24.55
2023-02-15T19:34:18.330Z,27.73
2023-02-15T19:36:56.445Z,28.15
2023-02-15T19:39:29.117Z,31.35
2023-02-15T19:41:57.084Z,30.77
2023-02-15T19:44:26.905Z,27.98
2023-02-15T19:46:53.482Z,25.02
2023-02-15T19:49:20.108Z,31.25
2023-02-15T19:51:47.388Z,29.37
2023-02-15T19:54:33.360Z,31.95
2023-02-15T19:57:00.406Z,31.77
2023-02-15T19:59:31.975Z,29.55
2023-02-15T20:01:59.311Z,31.67
2023-02-15T20:04:27.682Z,28.60
2023-02-15T20:07:01.615Z,28.83
2023-02-15T20:09:35.455Z,25.85
2023-02-15T20:12:01.895Z,24.98
2023-02-15T20:14:28.334Z,23.95
2023-02-15T20:16:55.887Z,28.20
2023-02-15T20:19:22.311Z,27.88
2023-02-15T20:21:48.976Z,27.00
2023-02-15T20:24:21.241Z,31.20
2023-02-15T20:26:47.783Z,24.33
2023-02-15T20:29:16.791Z,33.70
2023-02-15T20:31:43.350Z,28.00
2023-02-15T20:34:10.881Z,26.00
2023-02-15T20:36:38.687Z,34.03
2023-02-15T20:39:14.178Z,28.03
2023-02-15T20:41:40.836Z,33.17
2023-02-15T20:44:27.367Z,27.93
2023-02-15T20:46:56.270Z,36.30
2023-02-15T20:49:26.508Z,39.33
2023-02-15T20:51:55.190Z,39.60
2023-02-15T20:54:24.452Z,50.87
2023-02-15T20:56:51.056Z,37.40
2023-02-15T20:59:26.657Z,35.60
2023-02-15T21:02:00.203Z,26.83
2023-02-15T21:04:30.491Z,24.80
2023-02-15T21:06:57.055Z,29.88
2023-02-15T21:09:23.438Z,23.00
2023-02-15T21:11:52.001Z,21.63
2023-02-15T21:14:23.880Z,25.37
2023-02-15T21:16:51.236Z,22.73
2023-02-15T21:19:20.632Z,22.80
2023-02-15T21:21:48.608Z,22.70
2023-02-15T21:24:29.176Z,26.87
2023-02-15T21:26:58.659Z,27.63
2023-02-15T21:29:27.661Z,24.83
2023-02-15T21:31:55.002Z,29.27
2023-02-15T21:34:21.530Z,31.40
2023-02-15T21:36:49.024Z,33.50
2023-02-15T21:39:19.427Z,30.73
2023-02-15T21:41:47.990Z,29.42
2023-02-15T21:44:17.339Z,32.33
2023-02-15T21:46:44.141Z,33.20
2023-02-15T21:49:10.632Z,34.07
2023-02-15T21:51:37.139Z,35.10
2023-02-15T21:54:04.392Z,34.80
2023-02-15T21:56:31.909Z,33.93
2023-02-15T21:58:58.305Z,32.33
2023-02-15T22:01:27.295Z,35.00
2023-02-15T22:03:55.445Z,34.27
2023-02-15T22:06:21.924Z,33.77
2023-02-15T22:08:48.369Z,35.27
2023-02-15T22:11:19.845Z,33.40
2023-02-15T22:13:47.699Z,30.00
2023-02-15T22:16:24.505Z,35.73
2023-02-15T22:18:51.067Z,37.53
2023-02-15T22:21:17.783Z,34.97
2023-02-15T22:23:44.226Z,35.20
2023-02-15T22:26:28.646Z,35.83
2023-02-15T22:28:56.938Z,34.70
2023-02-15T22:31:23.484Z,33.57
2023-02-15T22:33:50.564Z,36.37
2023-02-15T22:36:23.437Z,39.03
2023-02-15T22:38:50.010Z,37.50
2023-02-15T22:41:17.391Z,38.57
2023-02-15T22:43:45.916Z,32.77
2023-02-15T22:46:18.126Z,30.73
2023-02-15T22:48:46.018Z,33.43
2023-02-15T22:51:17.481Z,32.17
2023-02-15T22:53:43.903Z,33.80
2023-02-15T22:56:18.501Z,35.20
2023-02-15T22:58:46.223Z,32.07
2023-02-15T23:01:30.194Z,35.40
2023-02-15T23:03:56.661Z,33.17
2023-02-15T23:06:23.104Z,37.53
2023-02-15T23:08:49.592Z,37.77
2023-02-15T23:11:18.161Z,44.83
2023-02-15T23:13:45.346Z,39.73
2023-02-15T23:16:17.770Z,34.70
2023-02-15T23:18:46.963Z,32.20
2023-02-15T23:21:27.307Z,38.73
2023-02-15T23:23:57.754Z,35.97
2023-02-15T23:26:30.832Z,38.35
2023-02-15T23:28:59.741Z,38.37
2023-02-15T23:31:34.765Z,31.90
2023-02-15T23:34:05.522Z,32.70
2023-02-15T23:36:33.023Z,35.35
2023-02-15T23:39:07.468Z,34.40
2023-02-15T23:41:33.924Z,30.00
2023-02-15T23:44:03.784Z,31.27
2023-02-15T23:46:39.763Z,27.07
2023-02-15T23:49:06.265Z,30.23
2023-02-15T23:51:33.823Z,32.90
2023-02-15T23:54:00.224Z,32.70
2023-02-15T23:56:26.591Z,29.63
2023-02-15T23:58:53.335Z,32.37
